createdAt,value
2018-06-21T00:03:21.751Z,99.20
2018-06-21T00:05:25.253Z,99.10
2018-06-21T00:07:28.872Z,99.30
2018-06-21T00:09:32.392Z,99.00
2018-06-21T00:11:36.160Z,98.90
2018-06-21T00:13:39.761Z,98.90
2018-06-21T00:15:43.280Z,99.00
2018-06-21T00:17:46.792Z,98.60
2018-06-21T00:19:50.283Z,98.60
2018-06-21T00:21:53.801Z,98.60
2018-06-21T00:23:57.325Z,98.80
2018-06-21T00:26:00.979Z,98.90
2018-06-21T00:28:04.507Z,99.00
2018-06-21T00:30:08.022Z,99.30
2018-06-21T00:32:11.553Z,99.30
2018-06-21T00:34:15.039Z,99.40
2018-06-21T00:36:18.579Z,99.30
2018-06-21T00:38:22.166Z,99.40
2018-06-21T00:40:25.657Z,99.20
2018-06-21T00:42:29.247Z,99.20
2018-06-21T00:44:32.727Z,99.10
2018-06-21T00:46:36.585Z,99.20
2018-06-21T00:48:40.128Z,99.10
2018-06-21T00:50:43.729Z,99.10
2018-06-21T00:52:47.258Z,98.90
2018-06-21T00:54:50.744Z,99.00
2018-06-21T00:56:54.316Z,98.90
2018-06-21T00:58:57.806Z,99.00
2018-06-21T01:01:01.363Z,99.00
2018-06-21T01:03:04.981Z,98.80
2018-06-21T01:05:08.480Z,98.50
2018-06-21T01:09:15.164Z,99.20
2018-06-21T01:13:21.838Z,99.60
2018-06-21T01:17:28.508Z,99.60
2018-06-21T01:19:31.993Z,99.70
2018-06-21T01:21:35.503Z,99.80
2018-06-21T01:23:39.040Z,99.90
2018-06-21T01:25:42.607Z,99.90
2018-06-21T01:29:49.316Z,99.80
2018-06-21T01:31:52.824Z,99.70
2018-06-21T01:33:56.399Z,99.50
2018-06-21T01:35:59.901Z,99.50
2018-06-21T01:38:03.464Z,99.50
2018-06-21T01:40:06.959Z,99.50
2018-06-21T01:42:10.540Z,99.50
2018-06-21T01:44:14.063Z,99.20
2018-06-21T01:46:17.603Z,99.50
2018-06-21T01:48:21.104Z,99.60
2018-06-21T01:50:24.721Z,99.60
2018-06-21T01:52:28.271Z,99.60
2018-06-21T01:54:31.836Z,99.70
2018-06-21T01:56:35.325Z,99.90
2018-06-21T01:58:38.844Z,99.90
2018-06-21T02:02:45.662Z,99.90
2018-06-21T02:04:49.134Z,99.90
2018-06-21T02:06:52.631Z,99.90
2018-06-21T02:08:56.203Z,99.90
2018-06-21T02:10:59.776Z,99.90
2018-06-21T02:13:03.398Z,99.90
2018-06-21T02:15:07.296Z,99.90
2018-06-21T02:17:10.823Z,99.90
2018-06-21T02:19:14.341Z,99.90
2018-06-21T02:21:17.838Z,99.80
2018-06-21T02:23:21.421Z,99.50
2018-06-21T02:25:24.933Z,99.80
2018-06-21T02:27:28.483Z,99.90
2018-06-21T02:29:32.008Z,99.90
2018-06-21T02:31:35.703Z,99.90
2018-06-21T02:33:39.291Z,99.90
2018-06-21T02:35:42.772Z,99.90
2018-06-21T02:37:46.295Z,99.90
2018-06-21T02:39:49.868Z,99.90
2018-06-21T02:45:59.728Z,99.90
2018-06-21T02:48:03.228Z,99.90
2018-06-21T02:50:06.800Z,99.90
2018-06-21T02:52:10.313Z,99.90
2018-06-21T02:54:13.837Z,99.90
2018-06-21T02:56:17.340Z,99.90
2018-06-21T02:58:20.779Z,99.90
2018-06-21T03:00:24.348Z,99.90
2018-06-21T03:02:27.880Z,99.90
2018-06-21T03:04:31.468Z,99.90
2018-06-21T03:06:35.033Z,99.90
2018-06-21T03:08:38.555Z,99.90
2018-06-21T03:10:42.065Z,99.90
2018-06-21T03:12:45.603Z,99.90
2018-06-21T03:14:49.168Z,99.90
2018-06-21T03:16:52.676Z,99.90
2018-06-21T03:18:56.589Z,99.90
2018-06-21T03:21:00.134Z,99.90
2018-06-21T03:23:03.727Z,99.90
2018-06-21T03:25:07.279Z,99.90
2018-06-21T03:27:11.239Z,99.90
2018-06-21T03:29:14.810Z,99.90
2018-06-21T03:31:18.346Z,99.90
2018-06-21T03:33:21.835Z,99.90
2018-06-21T03:35:25.366Z,99.90
2018-06-21T03:39:32.129Z,99.90
2018-06-21T03:41:35.705Z,99.90
2018-06-21T03:43:39.271Z,99.90
2018-06-21T03:45:42.793Z,99.90
2018-06-21T03:47:46.336Z,99.90
2018-06-21T03:49:49.872Z,99.90
2018-06-21T03:51:53.415Z,99.90
2018-06-21T03:53:56.939Z,99.90
2018-06-21T03:56:00.448Z,99.90
2018-06-21T03:58:03.943Z,99.90
2018-06-21T04:00:07.700Z,99.90
2018-06-21T04:02:11.211Z,99.90
2018-06-21T04:04:14.855Z,99.90
2018-06-21T04:06:18.371Z,99.90
2018-06-21T04:08:21.890Z,99.90
2018-06-21T04:10:25.403Z,99.90
2018-06-21T04:12:28.915Z,99.90
2018-06-21T04:14:32.441Z,99.90
2018-06-21T04:16:36.284Z,99.90
2018-06-21T04:18:39.766Z,99.90
2018-06-21T04:20:43.252Z,99.90
2018-06-21T04:22:46.754Z,99.90
2018-06-21T04:24:50.238Z,99.90
2018-06-21T04:26:53.838Z,99.90
2018-06-21T04:28:57.352Z,99.90
2018-06-21T04:31:01.165Z,99.90
2018-06-21T04:33:04.779Z,99.90
2018-06-21T04:35:08.352Z,99.90
2018-06-21T04:37:11.843Z,99.90
2018-06-21T04:39:15.462Z,99.90
2018-06-21T04:43:22.238Z,99.90
2018-06-21T04:45:25.757Z,99.90
2018-06-21T04:47:29.235Z,99.90
2018-06-21T04:49:32.745Z,99.90
2018-06-21T04:51:36.336Z,99.90
2018-06-21T04:53:39.825Z,99.90
2018-06-21T04:55:43.460Z,99.90
2018-06-21T04:57:46.963Z,99.90
2018-06-21T04:59:50.510Z,99.90
2018-06-21T05:01:54.031Z,99.90
2018-06-21T05:03:57.506Z,99.90
2018-06-21T05:06:01.061Z,99.90
2018-06-21T05:08:04.585Z,99.90
2018-06-21T05:10:08.064Z,99.90
2018-06-21T05:12:11.580Z,99.90
2018-06-21T05:14:15.231Z,99.90
2018-06-21T05:16:18.794Z,99.90
2018-06-21T05:18:22.305Z,99.90
2018-06-21T05:20:32.278Z,99.90
2018-06-21T05:22:35.764Z,99.90
2018-06-21T05:24:39.375Z,99.90
2018-06-21T05:26:42.955Z,99.90
2018-06-21T05:28:46.441Z,99.90
2018-06-21T05:30:50.046Z,99.90
2018-06-21T05:32:53.579Z,99.90
2018-06-21T05:34:57.236Z,99.90
2018-06-21T05:37:00.738Z,99.90
2018-06-21T05:39:05.995Z,99.90
2018-06-21T05:41:09.550Z,99.90
2018-06-21T05:43:13.051Z,99.90
2018-06-21T05:45:16.512Z,99.90
2018-06-21T05:47:20.042Z,99.90
2018-06-21T05:49:23.524Z,99.90
2018-06-21T05:51:27.079Z,99.90
2018-06-21T05:53:30.566Z,99.90
2018-06-21T05:55:34.811Z,99.70
2018-06-21T05:57:38.371Z,99.60
2018-06-21T05:59:41.862Z,99.30
2018-06-21T06:01:45.380Z,99.10
2018-06-21T06:03:48.867Z,98.90
2018-06-21T06:05:52.372Z,99.10
2018-06-21T06:07:55.967Z,99.20
2018-06-21T06:09:59.515Z,99.30
2018-06-21T06:12:03.056Z,99.40
2018-06-21T06:14:07.073Z,99.40
2018-06-21T06:16:10.577Z,99.40
2018-06-21T06:18:14.056Z,99.20
2018-06-21T06:20:17.598Z,99.20
2018-06-21T06:22:21.104Z,99.20
2018-06-21T06:24:24.835Z,99.00
2018-06-21T06:26:28.476Z,99.00
2018-06-21T06:28:32.027Z,98.80
2018-06-21T06:30:35.586Z,98.50
2018-06-21T06:32:39.211Z,98.60
2018-06-21T06:34:42.713Z,98.50
2018-06-21T06:36:46.233Z,98.60
2018-06-21T06:38:49.780Z,98.60
2018-06-21T06:40:53.595Z,98.80
2018-06-21T06:42:57.380Z,98.60
2018-06-21T06:45:00.879Z,98.50
2018-06-21T06:47:04.585Z,98.10
2018-06-21T06:49:08.064Z,97.80
2018-06-21T06:51:11.624Z,98.20
2018-06-21T06:53:15.179Z,97.70
2018-06-21T06:55:18.704Z,98.30
2018-06-21T06:57:22.203Z,97.20
2018-06-21T06:59:25.710Z,97.10
2018-06-21T07:01:29.998Z,96.30
2018-06-21T07:03:33.491Z,95.80
2018-06-21T07:05:37.077Z,95.00
2018-06-21T07:07:40.655Z,95.10
2018-06-21T07:09:44.144Z,95.20
2018-06-21T07:11:47.674Z,95.10
2018-06-21T07:13:51.330Z,95.10
2018-06-21T07:15:55.054Z,94.90
2018-06-21T07:17:58.608Z,95.20
2018-06-21T07:20:02.093Z,94.90
2018-06-21T07:22:05.671Z,94.60
2018-06-21T07:24:09.855Z,94.70
2018-06-21T07:26:13.356Z,94.60
2018-06-21T07:28:16.854Z,93.80
2018-06-21T07:30:20.327Z,93.90
2018-06-21T07:32:23.836Z,93.60
2018-06-21T07:34:27.328Z,93.40
2018-06-21T07:36:30.824Z,93.50
2018-06-21T07:38:34.391Z,93.60
2018-06-21T07:40:37.876Z,93.60
2018-06-21T07:42:41.383Z,93.60
2018-06-21T07:44:44.871Z,93.50
2018-06-21T07:46:48.457Z,93.10
2018-06-21T07:48:52.057Z,92.60
2018-06-21T07:52:58.682Z,92.40
2018-06-21T07:55:02.299Z,92.30
2018-06-21T07:57:05.921Z,92.40
2018-06-21T07:59:09.704Z,92.70
2018-06-21T08:01:13.304Z,92.50
2018-06-21T08:03:16.801Z,92.40
2018-06-21T08:05:20.328Z,92.70
2018-06-21T08:07:23.824Z,92.40
2018-06-21T08:11:30.515Z,92.70
2018-06-21T08:13:34.028Z,92.30
2018-06-21T08:15:37.554Z,92.40
2018-06-21T08:17:41.095Z,91.80
2018-06-21T08:19:44.647Z,92.00
2018-06-21T08:21:48.292Z,91.60
2018-06-21T08:23:51.851Z,91.40
2018-06-21T08:25:55.334Z,91.60
2018-06-21T08:27:58.891Z,91.50
2018-06-21T08:30:02.403Z,90.50
2018-06-21T08:32:06.062Z,90.70
2018-06-21T08:34:09.571Z,90.80
2018-06-21T08:36:13.115Z,90.90
2018-06-21T08:38:16.691Z,91.10
2018-06-21T08:40:20.244Z,90.50
2018-06-21T08:42:23.773Z,91.00
2018-06-21T08:44:27.290Z,90.70
2018-06-21T08:46:31.133Z,90.60
2018-06-21T08:48:34.637Z,90.80
2018-06-21T08:50:38.271Z,90.90
2018-06-21T08:52:41.763Z,90.60
2018-06-21T08:54:45.422Z,90.30
2018-06-21T08:56:48.922Z,90.90
2018-06-21T08:58:52.568Z,90.70
2018-06-21T09:00:56.067Z,90.60
2018-06-21T09:02:59.636Z,90.40
2018-06-21T09:05:03.628Z,90.50
2018-06-21T09:07:07.167Z,90.30
2018-06-21T09:09:10.872Z,89.80
2018-06-21T09:11:14.398Z,90.20
2018-06-21T09:13:18.133Z,90.60
2018-06-21T09:15:21.684Z,90.70
2018-06-21T09:17:25.265Z,90.30
2018-06-21T09:19:28.971Z,90.40
2018-06-21T09:21:32.527Z,90.50
2018-06-21T09:23:36.044Z,90.40
2018-06-21T09:25:39.562Z,90.40
2018-06-21T09:27:43.161Z,90.10
2018-06-21T09:29:46.691Z,90.00
2018-06-21T09:31:50.184Z,88.60
2018-06-21T09:33:53.860Z,88.30
2018-06-21T09:35:57.381Z,86.70
2018-06-21T09:38:06.186Z,87.20
2018-06-21T09:40:15.136Z,87.40
2018-06-21T09:42:30.654Z,87.30
2018-06-21T09:44:35.500Z,85.30
2018-06-21T09:46:44.267Z,85.70
2018-06-21T09:48:52.223Z,86.20
2018-06-21T09:50:55.751Z,85.70
2018-06-21T09:52:59.387Z,84.70
2018-06-21T09:55:02.946Z,83.40
2018-06-21T09:57:06.570Z,79.30
2018-06-21T09:59:10.159Z,78.60
2018-06-21T10:01:13.667Z,77.50
2018-06-21T10:03:17.252Z,76.50
2018-06-21T10:07:23.972Z,77.80
2018-06-21T10:09:27.535Z,77.60
2018-06-21T10:11:31.092Z,77.50
2018-06-21T10:13:34.741Z,77.40
2018-06-21T10:15:38.377Z,78.60
2018-06-21T10:17:41.896Z,77.10
2018-06-21T10:19:45.447Z,75.50
2018-06-21T10:21:48.991Z,74.20
2018-06-21T10:23:52.507Z,73.80
2018-06-21T10:25:56.069Z,74.20
2018-06-21T10:27:59.548Z,75.40
2018-06-21T10:30:03.095Z,76.10
2018-06-21T10:32:06.610Z,76.30
2018-06-21T10:34:10.210Z,77.70
2018-06-21T10:36:13.769Z,80.00
2018-06-21T10:38:17.272Z,81.60
2018-06-21T10:40:20.800Z,82.60
2018-06-21T10:42:24.475Z,82.30
2018-06-21T10:44:28.172Z,80.30
2018-06-21T10:46:31.720Z,80.30
2018-06-21T10:48:35.280Z,79.70
2018-06-21T10:50:38.810Z,78.50
2018-06-21T10:52:42.435Z,78.10
2018-06-21T10:54:45.958Z,77.00
2018-06-21T10:56:49.451Z,77.90
2018-06-21T10:58:53.023Z,79.80
2018-06-21T11:00:56.608Z,78.50
2018-06-21T11:03:00.187Z,79.50
2018-06-21T11:05:03.784Z,79.80
2018-06-21T11:07:07.355Z,78.40
2018-06-21T11:09:10.974Z,79.00
2018-06-21T11:11:14.499Z,79.20
2018-06-21T11:13:18.036Z,78.40
2018-06-21T11:15:21.528Z,78.20
2018-06-21T11:19:28.337Z,78.60
2018-06-21T11:21:31.897Z,78.40
2018-06-21T11:23:35.402Z,77.80
2018-06-21T11:25:38.983Z,77.60
2018-06-21T11:27:42.572Z,77.40
2018-06-21T11:29:46.074Z,77.00
2018-06-21T11:31:49.937Z,76.00
2018-06-21T11:33:53.452Z,75.90
2018-06-21T11:35:57.066Z,76.60
2018-06-21T11:38:00.591Z,76.10
2018-06-21T11:40:04.197Z,75.10
2018-06-21T11:42:07.763Z,74.20
2018-06-21T11:44:11.368Z,73.90
2018-06-21T11:46:14.899Z,74.60
2018-06-21T11:48:18.490Z,71.90
2018-06-21T11:50:22.053Z,72.20
2018-06-21T11:52:25.700Z,73.00
2018-06-21T11:54:29.228Z,72.60
2018-06-21T11:56:32.791Z,72.90
2018-06-21T11:58:36.292Z,73.20
2018-06-21T12:00:39.869Z,72.10
2018-06-21T12:02:43.421Z,71.20
2018-06-21T12:04:46.944Z,70.90
2018-06-21T12:06:50.457Z,70.70
2018-06-21T12:08:54.000Z,71.60
2018-06-21T12:10:57.539Z,71.70
2018-06-21T12:13:01.052Z,70.00
2018-06-21T12:15:04.844Z,68.60
2018-06-21T12:17:08.392Z,68.60
2018-06-21T12:19:11.911Z,68.00
2018-06-21T12:21:15.450Z,67.90
2018-06-21T12:23:18.985Z,66.70
2018-06-21T12:25:22.564Z,67.60
2018-06-21T12:27:26.051Z,66.50
2018-06-21T12:29:29.644Z,66.90
2018-06-21T12:31:33.195Z,66.90
2018-06-21T12:33:36.703Z,66.90
2018-06-21T12:35:40.607Z,67.40
2018-06-21T12:37:44.155Z,66.10
2018-06-21T12:39:47.672Z,64.70
2018-06-21T12:41:51.271Z,65.00
2018-06-21T12:43:54.864Z,66.00
2018-06-21T12:45:58.520Z,65.50
2018-06-21T12:48:02.100Z,65.10
2018-06-21T12:50:05.700Z,65.40
2018-06-21T12:52:09.218Z,65.90
2018-06-21T12:54:12.781Z,64.70
2018-06-21T12:56:16.297Z,65.70
2018-06-21T12:58:19.778Z,64.70
2018-06-21T13:00:23.254Z,65.10
2018-06-21T13:02:26.911Z,65.30
2018-06-21T13:04:30.428Z,64.90
2018-06-21T13:06:34.005Z,65.00
2018-06-21T13:08:48.667Z,65.70
2018-06-21T13:11:03.525Z,66.60
2018-06-21T13:13:18.946Z,64.30
2018-06-21T13:15:22.708Z,64.40
2018-06-21T13:17:27.294Z,64.50
2018-06-21T13:19:30.945Z,64.30
2018-06-21T13:21:34.495Z,65.70
2018-06-21T13:23:38.052Z,63.60
2018-06-21T13:25:41.595Z,63.80
2018-06-21T13:27:45.115Z,64.70
2018-06-21T13:29:48.645Z,63.30
2018-06-21T13:31:52.217Z,64.20
2018-06-21T13:33:55.975Z,64.50
2018-06-21T13:35:59.530Z,64.50
2018-06-21T13:38:03.029Z,64.50
2018-06-21T13:40:06.640Z,64.00
2018-06-21T13:42:10.247Z,62.70
2018-06-21T13:44:13.896Z,63.50
2018-06-21T13:46:17.506Z,63.00
2018-06-21T13:48:21.029Z,62.50
2018-06-21T13:52:27.859Z,61.10
2018-06-21T13:54:31.494Z,60.50
2018-06-21T13:56:35.028Z,61.20
2018-06-21T13:58:38.490Z,59.70
2018-06-21T14:00:42.048Z,59.90
2018-06-21T14:02:45.578Z,59.00
2018-06-21T14:04:49.101Z,59.90
2018-06-21T14:06:52.675Z,59.70
2018-06-21T14:08:56.172Z,59.60
2018-06-21T14:10:59.731Z,58.60
2018-06-21T14:13:03.272Z,58.60
2018-06-21T14:15:06.824Z,58.80
2018-06-21T14:17:10.319Z,59.40
2018-06-21T14:19:13.869Z,59.90
2018-06-21T14:21:17.374Z,60.40
2018-06-21T14:23:20.908Z,58.70
2018-06-21T14:25:24.424Z,58.50
2018-06-21T14:27:27.937Z,59.00
2018-06-21T14:29:31.480Z,60.00
2018-06-21T14:31:35.157Z,59.90
2018-06-21T14:33:38.676Z,59.80
2018-06-21T14:35:42.242Z,59.90
2018-06-21T14:37:45.759Z,61.40
2018-06-21T14:39:49.276Z,61.10
2018-06-21T14:41:52.841Z,62.00
2018-06-21T14:43:56.427Z,62.50
2018-06-21T14:45:59.918Z,63.70
2018-06-21T14:48:03.456Z,64.20
2018-06-21T14:50:06.954Z,65.30
2018-06-21T14:52:10.492Z,64.80
2018-06-21T14:54:14.008Z,64.50
2018-06-21T14:56:17.494Z,64.90
2018-06-21T14:58:21.092Z,65.00
2018-06-21T15:00:24.640Z,66.00
2018-06-21T15:02:28.185Z,66.40
2018-06-21T15:04:32.563Z,67.20
2018-06-21T15:06:36.075Z,66.90
2018-06-21T15:08:39.591Z,66.80
2018-06-21T15:10:43.196Z,66.00
2018-06-21T15:12:46.808Z,65.60
2018-06-21T15:14:50.386Z,64.30
2018-06-21T15:16:53.905Z,64.50
2018-06-21T15:18:57.500Z,64.90
2018-06-21T15:21:00.999Z,64.60
2018-06-21T15:23:04.673Z,63.60
2018-06-21T15:25:08.129Z,63.90
2018-06-21T15:27:11.652Z,64.70
2018-06-21T15:29:15.166Z,65.00
2018-06-21T15:31:18.721Z,64.10
2018-06-21T15:33:22.246Z,65.30
2018-06-21T15:35:25.801Z,65.80
2018-06-21T15:37:29.320Z,65.70
2018-06-21T15:39:32.817Z,65.70
2018-06-21T15:41:36.355Z,66.10
2018-06-21T15:43:39.901Z,65.10
2018-06-21T15:45:43.400Z,65.00
2018-06-21T15:47:46.903Z,65.90
2018-06-21T15:49:50.472Z,67.30
2018-06-21T15:51:53.990Z,67.00
2018-06-21T15:53:57.502Z,67.60
2018-06-21T15:56:01.113Z,66.90
2018-06-21T15:58:04.759Z,66.90
2018-06-21T16:00:10.248Z,66.90
2018-06-21T16:02:13.775Z,67.10
2018-06-21T16:04:17.352Z,67.50
2018-06-21T16:06:21.066Z,67.30
2018-06-21T16:08:24.569Z,68.60
2018-06-21T16:10:28.163Z,69.60
2018-06-21T16:12:31.714Z,70.60
2018-06-21T16:14:35.312Z,70.00
2018-06-21T16:16:38.840Z,68.00
2018-06-21T16:18:42.376Z,68.10
2018-06-21T16:20:45.887Z,68.40
2018-06-21T16:22:49.418Z,69.20
2018-06-21T16:24:52.903Z,69.10
2018-06-21T16:26:56.407Z,68.50
2018-06-21T16:29:00.200Z,69.30
2018-06-21T16:31:03.776Z,71.90
2018-06-21T16:33:07.830Z,74.00
2018-06-21T16:35:11.353Z,74.00
2018-06-21T16:37:14.834Z,74.60
2018-06-21T16:39:18.425Z,75.10
2018-06-21T16:41:21.927Z,75.60
2018-06-21T16:43:25.455Z,75.50
2018-06-21T16:45:29.024Z,76.10
2018-06-21T16:47:32.491Z,75.90
2018-06-21T16:49:36.087Z,75.70
2018-06-21T16:51:39.595Z,76.20
2018-06-21T16:53:43.304Z,76.10
2018-06-21T16:55:46.939Z,76.20
2018-06-21T16:57:50.539Z,76.30
2018-06-21T16:59:54.080Z,75.60
2018-06-21T17:01:57.631Z,74.50
2018-06-21T17:04:01.200Z,74.90
2018-06-21T17:06:04.792Z,73.90
2018-06-21T17:08:08.279Z,73.80
2018-06-21T17:10:11.822Z,74.00
2018-06-21T17:12:15.375Z,73.10
2018-06-21T17:14:18.921Z,73.50
2018-06-21T17:16:22.450Z,73.50
2018-06-21T17:18:25.994Z,74.30
2018-06-21T17:20:29.550Z,74.30
2018-06-21T17:22:33.064Z,74.60
2018-06-21T17:24:36.652Z,74.70
2018-06-21T17:26:40.173Z,75.10
2018-06-21T17:28:43.703Z,75.60
2018-06-21T17:30:47.228Z,75.60
2018-06-21T17:32:50.739Z,75.60
2018-06-21T17:34:54.308Z,76.20
2018-06-21T17:39:01.047Z,76.20
2018-06-21T17:41:04.601Z,76.40
2018-06-21T17:43:08.240Z,76.60
2018-06-21T17:45:11.800Z,76.80
2018-06-21T17:49:18.520Z,76.90
2018-06-21T17:51:22.234Z,77.30
2018-06-21T17:53:25.773Z,77.40
2018-06-21T17:55:29.316Z,77.60
2018-06-21T17:57:32.803Z,78.00
2018-06-21T17:59:36.295Z,77.80
2018-06-21T18:01:39.881Z,78.00
2018-06-21T18:03:43.665Z,78.00
2018-06-21T18:05:47.230Z,78.10
2018-06-21T18:07:50.853Z,78.30
2018-06-21T18:09:54.468Z,78.80
2018-06-21T18:11:58.020Z,78.10
2018-06-21T18:14:01.582Z,78.10
2018-06-21T18:16:05.247Z,78.20
2018-06-21T18:18:08.796Z,77.90
2018-06-21T18:20:12.376Z,78.20
2018-06-21T18:22:15.928Z,78.70
2018-06-21T18:24:19.567Z,78.80
2018-06-21T18:26:23.480Z,79.10
2018-06-21T18:28:27.059Z,79.30
2018-06-21T18:30:30.695Z,79.70
2018-06-21T18:32:34.283Z,79.30
2018-06-21T18:34:37.917Z,79.60
2018-06-21T18:36:41.445Z,79.30
2018-06-21T18:38:44.947Z,79.30
2018-06-21T18:40:48.524Z,79.30
2018-06-21T18:42:52.065Z,78.70
2018-06-21T18:44:55.637Z,77.90
2018-06-21T18:46:59.148Z,77.30
2018-06-21T18:49:02.748Z,76.90
2018-06-21T18:51:06.431Z,76.50
2018-06-21T18:53:10.089Z,74.30
2018-06-21T18:57:16.919Z,74.00
2018-06-21T18:59:20.516Z,73.80
2018-06-21T19:01:24.051Z,73.30
2018-06-21T19:03:27.579Z,73.70
2018-06-21T19:05:31.163Z,73.10
2018-06-21T19:07:35.139Z,72.80
2018-06-21T19:09:44.019Z,72.30
2018-06-21T19:11:52.722Z,71.60
2018-06-21T19:13:56.287Z,71.60
2018-06-21T19:15:59.909Z,71.30
2018-06-21T19:18:03.464Z,71.20
2018-06-21T19:20:07.159Z,70.80
2018-06-21T19:22:10.785Z,68.80
2018-06-21T19:24:14.358Z,66.60
2018-06-21T19:26:17.956Z,66.60
2018-06-21T19:28:24.337Z,64.70
2018-06-21T19:30:27.874Z,63.20
2018-06-21T19:32:31.395Z,61.10
2018-06-21T19:34:34.935Z,61.40
2018-06-21T19:36:38.574Z,58.70
2018-06-21T19:40:45.265Z,58.20
2018-06-21T19:42:48.874Z,57.30
2018-06-21T19:44:52.444Z,57.70
2018-06-21T19:46:55.972Z,56.80
2018-06-21T19:48:59.507Z,56.70
2018-06-21T19:51:03.072Z,57.50
2018-06-21T19:53:06.573Z,56.80
2018-06-21T19:55:10.119Z,56.40
2018-06-21T19:57:13.644Z,56.40
2018-06-21T19:59:17.181Z,55.60
2018-06-21T20:01:20.730Z,55.00
2018-06-21T20:03:24.273Z,54.30
2018-06-21T20:05:28.122Z,54.40
2018-06-21T20:07:31.666Z,53.80
2018-06-21T20:09:35.179Z,53.60
2018-06-21T20:13:45.702Z,53.70
2018-06-21T20:15:52.067Z,54.10
2018-06-21T20:17:55.640Z,54.00
2018-06-21T20:20:04.584Z,53.00
2018-06-21T20:22:08.114Z,53.30
2018-06-21T20:24:11.703Z,52.80
2018-06-21T20:26:21.463Z,53.80
2018-06-21T20:28:24.968Z,52.30
2018-06-21T20:30:28.481Z,52.80
2018-06-21T20:32:32.038Z,53.10
2018-06-21T20:34:35.563Z,53.10
2018-06-21T20:36:39.123Z,52.50
2018-06-21T20:38:42.838Z,53.60
2018-06-21T20:40:46.450Z,53.20
2018-06-21T20:42:50.018Z,52.30
2018-06-21T20:44:53.520Z,53.20
2018-06-21T20:46:57.095Z,52.80
2018-06-21T20:49:00.642Z,52.90
2018-06-21T20:51:04.236Z,53.20
2018-06-21T20:55:10.991Z,52.30
2018-06-21T20:57:14.588Z,52.50
2018-06-21T20:59:18.076Z,52.20
2018-06-21T21:01:22.511Z,52.10
2018-06-21T21:03:26.017Z,51.60
2018-06-21T21:05:29.538Z,52.10
2018-06-21T21:07:33.542Z,52.20
2018-06-21T21:09:37.021Z,51.90
2018-06-21T21:11:40.571Z,52.20
2018-06-21T21:13:44.079Z,51.90
2018-06-21T21:15:47.601Z,51.90
2018-06-21T21:17:51.149Z,51.70
2018-06-21T21:19:54.664Z,52.00
2018-06-21T21:21:58.161Z,51.60
2018-06-21T21:24:01.626Z,50.60
2018-06-21T21:26:05.268Z,50.70
2018-06-21T21:28:08.763Z,50.40
2018-06-21T21:30:12.346Z,50.30
2018-06-21T21:32:15.960Z,50.90
2018-06-21T21:34:19.462Z,51.30
2018-06-21T21:36:22.940Z,51.30
2018-06-21T21:38:26.484Z,51.30
2018-06-21T21:40:29.997Z,50.70
2018-06-21T21:42:34.722Z,50.90
2018-06-21T21:44:38.513Z,50.60
2018-06-21T21:46:42.055Z,50.70
2018-06-21T21:48:45.555Z,50.80
2018-06-21T21:50:49.069Z,51.10
2018-06-21T21:52:52.682Z,51.50
2018-06-21T21:54:56.172Z,51.50
2018-06-21T21:56:59.662Z,51.60
2018-06-21T21:59:03.204Z,51.50
2018-06-21T22:01:06.761Z,51.90
2018-06-21T22:03:10.251Z,52.00
2018-06-21T22:07:17.058Z,52.20
2018-06-21T22:09:20.666Z,52.00
2018-06-21T22:11:24.283Z,52.40
2018-06-21T22:13:27.903Z,52.20
2018-06-21T22:15:31.475Z,52.20
2018-06-21T22:17:34.995Z,52.60
2018-06-21T22:19:38.542Z,52.80
2018-06-21T22:21:42.072Z,52.80
2018-06-21T22:23:45.601Z,53.20
2018-06-21T22:25:49.097Z,53.50
2018-06-21T22:27:52.716Z,53.30
2018-06-21T22:29:56.245Z,53.50
2018-06-21T22:31:59.764Z,54.00
2018-06-21T22:34:03.282Z,54.10
2018-06-21T22:36:06.811Z,54.20
2018-06-21T22:38:10.360Z,54.40
2018-06-21T22:40:14.001Z,54.30
2018-06-21T22:42:17.491Z,54.40
2018-06-21T22:44:20.943Z,54.80
2018-06-21T22:46:24.512Z,54.80
2018-06-21T22:48:27.999Z,54.70
2018-06-21T22:50:31.539Z,55.20
2018-06-21T22:52:35.059Z,55.00
2018-06-21T22:56:41.711Z,54.80
2018-06-21T22:58:45.228Z,54.90
2018-06-21T23:00:48.700Z,55.20
2018-06-21T23:02:52.256Z,55.50
2018-06-21T23:04:55.734Z,55.70
2018-06-21T23:06:59.282Z,55.50
2018-06-21T23:09:02.835Z,55.80
2018-06-21T23:11:06.384Z,56.10
2018-06-21T23:13:09.892Z,56.40
2018-06-21T23:15:13.382Z,56.30
2018-06-21T23:17:16.848Z,57.00
2018-06-21T23:19:30.088Z,56.70
2018-06-21T23:21:33.541Z,57.00
2018-06-21T23:23:37.102Z,57.00
2018-06-21T23:27:43.884Z,57.20
2018-06-21T23:29:47.360Z,57.20
2018-06-21T23:31:51.483Z,56.80
2018-06-21T23:33:55.103Z,56.70
2018-06-21T23:35:58.971Z,56.60
2018-06-21T23:38:02.460Z,56.60
2018-06-21T23:40:06.012Z,56.80
2018-06-21T23:42:09.724Z,56.80
2018-06-21T23:44:19.681Z,57.00
2018-06-21T23:46:23.407Z,57.00
2018-06-21T23:48:26.937Z,57.40
2018-06-21T23:50:30.515Z,57.20
2018-06-21T23:52:34.048Z,57.90
2018-06-21T23:54:37.539Z,58.00
2018-06-21T23:56:42.088Z,57.90
2018-06-21T23:58:45.643Z,57.80
